Terminal Aerodrome Forecast
Issued by NWS Blacksburg, VA

Home | Current Version | Previous Version | Text Only | Print | Product List | Glossary On
Versions: 1 2 3 4 5 6 7 8 9 10 11 12 13 14 15
000
FTUS41 KRNK 061723
TAFLYH
TAF
KLYH 061723Z 0618/0718 06007KT 2SM -RA BR OVC004
     FM062100 01006KT P6SM OVC015
      TEMPO 0621/0623 2SM -RA OVC007
     FM070400 02004KT 1 1/2SM BR OVC003
     FM070900 31003KT 1/2SM FG OVC001
     FM071300 31005KT P6SM FEW003 BKN050=

USA.gov is the U.S. government's official web portal to all federal, state and local government web resources and services.